Flight Track Log - Related Links

Times and Time Zones

All times are in EDT time to prevent confusion due to time zone crossing. See the ASQ6041 flight status page for this flight to view local times or setup timezone preferences in your user account.

Time Position Orientation Groundspeed Altitude Reporting Facility
EDT Latitude Longitude Course Direction KTS MPH feet Rate Location/Type
Tue 09:59:17 AM 42.7653 -73.8061 198° South 163 188 1,000  Level Boston Center
Tue 09:59:47 AM 42.7922 -73.8094 355° North 184 212 1,900 1,979 Climbing Boston Center
Tue 10:00:54 AM 42.8375 -73.8672 317° Northwest 243 280 4,200 1,949 Climbing Boston Center
Tue 10:01:44 AM 42.8017 -73.9003 214° Southwest 225 259 5,700 1,964 Climbing Boston Center
Tue 10:02:44 AM 42.7489 -73.9556 218° Southwest 225 259 7,800 2,100 Climbing Boston Center
Tue 10:03:00 AM 42.3394 -73.9712 198° South  Level FlightAware Approximate
Tue 10:03:44 AM 42.7081 -74.0364 236° Southwest 249 287 9,900  Level Boston Center
Tue 10:04:00 AM 42.2581 -74.0061 198° South  Level FlightAware Approximate
Tue 10:04:44 AM 42.6611 -74.1200 233° Southwest 278 320 11,100  Level Boston Center
Tue 10:05:44 AM 42.6031 -74.2283 234° Southwest 314 361 12,600 1,600 Climbing Boston Center
Tue 10:06:44 AM 42.5378 -74.2631 201° Southwest 299 344 14,300 1,850 Climbing Boston Center
Tue 10:07:44 AM 42.4875 -74.1519 122° Southeast 255 293 16,300 1,650 Climbing Boston Center
Tue 10:08:44 AM 42.4558 -74.0414 111° Southeast 310 357 17,600 1,100 Climbing Boston Center
Tue 10:09:44 AM 42.3711 -73.9914 156° South 297 342 18,500 900 Climbing Boston Center
Tue 10:10:44 AM 42.2914 -74.0175 194° South 283 326 19,400 950 Climbing Boston Center
Tue 10:11:44 AM 42.1953 -74.0375 189° South 317 365 20,400 1,000 Climbing Boston Center
Tue 10:12:44 AM 42.0972 -74.0433 183° South 340 391 21,400 1,000 Climbing Boston Center
Tue 10:13:44 AM 41.9992 -74.0547 185° South 354 407 22,400 1,063 Climbing Boston Center
Tue 10:15:39 AM 41.8217 -74.1361 199° South 342 394 24,500 1,063 Climbing New York Center
Tue 10:16:39 AM 41.7328 -74.1817 201° Southwest 342 394 25,500 992 Climbing New York Center
Tue 10:17:40 AM 41.6464 -74.2244 200° South 342 394 26,500 942 Climbing New York Center
Tue 10:18:40 AM 41.5722 -74.2622 201° Southwest 342 394 27,400 942 Climbing New York Center
Tue 10:19:41 AM 41.4814 -74.3100 202° Southwest 334 384 28,400 992 Climbing New York Center
Tue 10:20:41 AM 41.3947 -74.3525 200° South 339 390 29,400 800 Climbing New York Center
Tue 10:21:41 AM 41.3033 -74.4083 205° Southwest 344 396 30,000 305 Climbing New York Center
Tue 10:22:39 AM 41.2378 -74.5069 229° Southwest 351 404 30,000  Level New York Center
Tue 10:23:39 AM 41.1678 -74.6131 229° Southwest 362 417 30,000 -50 Level New York Center
Tue 10:24:39 AM 41.0933 -74.7272 229° Southwest 391 450 29,900 -634 Descending New York Center
Tue 10:25:42 AM 41.0186 -74.8411 229° Southwest 407 468 28,700 -950 Descending New York Center
Tue 10:26:39 AM 40.9439 -74.9522 228° Southwest 407 468 28,000 -712 Descending New York Center
Tue 10:27:40 AM 40.8731 -75.0631 230° Southwest 407 468 27,300 -1,041 Descending New York Center
Tue 10:28:40 AM 40.7961 -75.1733 227° Southwest 407 468 25,900 -1,377 Descending New York Center
Tue 10:29:42 AM 40.7253 -75.2892 231° Southwest 407 468 24,500 -1,462 Descending New York Center
Tue 10:30:39 AM 40.6603 -75.4025 233° Southwest 407 468 23,000 -1,487 Descending New York Center
Tue 10:31:39 AM 40.5911 -75.5153 231° Southwest 402 463 21,600 -1,438 Descending New York Center
Tue 10:32:40 AM 40.5244 -75.6228 231° Southwest 402 463 20,100 -780 Descending New York Center
Tue 10:33:42 AM 40.4614 -75.7331 233° Southwest 397 457 20,000 -50 Descending New York Center
Tue 10:34:39 AM 40.3964 -75.8400 231° Southwest 397 457 20,000  Level New York Center
Tue 10:35:40 AM 40.3203 -75.9622 231° Southwest 402 463 20,000  Level New York Center
Tue 10:36:41 AM 40.2506 -76.0742 231° Southwest 402 463 20,000  Level New York Center
Tue 10:37:42 AM 40.1872 -76.1861 234° Southwest 402 463 20,000 -458 Level New York Center
Tue 10:38:39 AM 40.1261 -76.2872 232° Southwest 402 463 19,100 -1,271 Descending New York Center
Tue 10:39:40 AM 40.0664 -76.4047 236° Southwest 371 427 17,500 -1,525 Descending New York Center
Tue 10:40:41 AM 40.0153 -76.5169 239° Southwest 364 419 16,000 -917 Descending New York Center
Tue 10:42:17 AM 39.9333 -76.6833 237° Southwest 363 418 15,100 -362 Descending Potomac TRACON
Tue 10:43:10 AM 39.8833 -76.8000 241° Southwest 360 414 15,100 -400 Level Potomac TRACON
Tue 10:44:17 AM 39.8333 -76.9000 237° Southwest 355 409 14,300 -992 Descending Potomac TRACON
Tue 10:45:17 AM 39.7833 -77.0167 241° Southwest 352 405 13,000 -1,368 Descending Potomac TRACON
Tue 10:46:11 AM 39.7333 -77.1167 237° Southwest 352 405 11,700 -1,368 Descending Potomac TRACON
Tue 10:47:11 AM 39.6833 -77.2167 237° Southwest 334 384 10,400 -1,134 Descending Potomac TRACON
Tue 10:48:18 AM 39.6333 -77.3167 237° Southwest 284 327 9,300 -945 Descending Potomac TRACON
Tue 10:49:18 AM 39.5833 -77.3833 226° Southwest 263 303 8,400 -950 Descending Potomac TRACON
Tue 10:50:18 AM 39.5333 -77.4333 218° Southwest 256 295 7,400 -645 Descending Potomac TRACON
Tue 10:51:19 AM 39.4667 -77.4500 191° South 255 293 7,100 -595 Descending Potomac TRACON
Tue 10:52:19 AM 39.3833 -77.4500 180° South 252 290 6,200 -950 Descending Potomac TRACON
Tue 10:53:19 AM 39.3167 -77.4500 180° South 239 275 5,200 -992 Descending Potomac TRACON
Tue 10:54:20 AM 39.2667 -77.4500 180° South 212 244 4,200 -991 Descending Potomac TRACON
Tue 10:55:14 AM 39.2000 -77.4500 180° South 210 242 3,300 -595 Descending Potomac TRACON
Tue 10:56:21 AM 39.1500 -77.4500 180° South 163 188 3,000 -236 Descending Potomac TRACON
Tue 10:57:21 AM 39.1000 -77.4500 180° South 169 194 2,800 -530 Descending Potomac TRACON
Tue 10:59:22 AM 39.0167 -77.4667 189° South 130 150 1,400 -694 Descending Potomac TRACON
Tue 11:01:00 AM 38.9474 -77.4599 180° South  Level Estimated
Tue 11:08:00 AM 38.9474 -77.4599 349° North  Level Estimated
Tue 11:09:00 AM 38.9474 -77.4599 349° North  Level Estimated
Tue 11:10:00 AM 38.9474 -77.4599 349° North  Level Estimated

Login

Don't have an account? Register now (free) for customized features, flight alerts, and more!